Time;durP1;ratioP1;P1;durP2;ratioP2;P2;SDS_P1;SDS_P2;PMS_P1;PMS_P2;Temp;Humidity;BMP_temperature;BMP_pressure;BME280_temperature;BME280_humidity;BME280_pressure;Samples;Min_cycle;Max_cycle;Signal;HPM_P1;HPM_P2
2022/08/28 00:09:51;;;;;;;2.93;2.17;;;;;;;26.63;48.80;99872.28;20794977;28;20049;-71
2022/08/28 00:19:51;;;;;;;4.50;2.10;;;;;;;26.63;48.56;99863.50;20777368;28;20148;-71
2022/08/28 00:29:51;;;;;;;2.10;1.90;;;;;;;26.63;48.95;99866.16;20797776;28;20053;-70
2022/08/28 00:39:52;;;;;;;1.93;1.80;;;;;;;26.62;49.01;99865.34;20788207;28;20045;-70
2022/08/28 00:49:54;;;;;;;;;;;;;;;26.57;48.65;99880.13;20785440;28;20050;-70
2022/08/28 00:59:54;;;;;;;;;;;;;;;26.57;48.97;99886.25;20788814;28;19971;-70
2022/08/28 01:09:55;;;;;;;2.40;2.00;;;;;;;26.61;49.15;99903.53;20776424;28;20340;-70
2022/08/28 01:20:01;;;;;;;2.08;1.92;;;;;;;26.61;49.03;99886.75;20784462;28;20044;-70
2022/08/28 01:30:03;;;;;;;2.20;2.00;;;;;;;26.61;48.88;99892.06;20792863;28;20037;-70
2022/08/28 01:40:08;;;;;;;2.03;1.80;;;;;;;26.60;48.98;99893.91;20769730;28;20030;-70
2022/08/28 01:50:11;;;;;;;3.60;2.05;;;;;;;26.61;49.30;99906.19;20774350;28;20045;-70
2022/08/28 02:00:13;;;;;;;1.83;1.63;;;;;;;26.60;49.16;99909.81;20787731;28;20060;-70
2022/08/28 02:10:14;;;;;;;2.70;2.13;;;;;;;26.61;49.17;99900.03;20780444;28;20416;-71
2022/08/28 02:20:14;;;;;;;;;;;;;;;26.55;49.26;99879.44;20777719;28;20038;-70
2022/08/28 02:30:16;;;;;;;3.28;1.77;;;;;;;26.58;49.40;99856.03;20769238;28;19928;-70
2022/08/28 02:40:19;;;;;;;2.20;2.00;;;;;;;26.58;49.10;99864.00;20780598;28;20064;-70
2022/08/28 02:50:20;;;;;;;1.92;1.80;;;;;;;26.58;49.14;99873.81;20759022;28;20072;-70
2022/08/28 03:00:22;;;;;;;;;;;;;;;26.53;49.12;99858.38;20776437;28;20046;-70
2022/08/28 03:10:22;;;;;;;1.75;1.60;;;;;;;26.56;49.57;99878.47;20776708;28;20057;-70
2022/08/28 03:20:23;;;;;;;1.63;1.52;;;;;;;26.56;49.60;99907.66;20784736;28;20061;-70
2022/08/28 03:30:23;;;;;;;;;;;;;;;26.50;49.64;99896.72;20768288;28;20042;-70
2022/08/28 03:40:24;;;;;;;1.90;1.70;;;;;;;26.55;49.08;99890.06;20775374;28;19926;-71
2022/08/28 03:50:25;;;;;;;;;;;;;;;26.49;49.57;99908.31;20805616;28;20144;-70
2022/08/28 04:00:25;;;;;;;2.20;2.00;;;;;;;26.55;49.28;99914.81;20758174;28;19996;-70
2022/08/28 04:10:25;;;;;;;1.70;1.60;;;;;;;26.53;49.66;99906.16;20765108;28;20144;-71
2022/08/28 04:20:27;;;;;;;2.25;2.05;;;;;;;26.53;49.38;99890.25;20771458;28;20065;-71
2022/08/28 04:30:27;;;;;;;2.28;2.08;;;;;;;26.53;49.28;99911.47;20780312;28;21004;-70
2022/08/28 04:40:28;;;;;;;2.30;1.70;;;;;;;26.52;49.34;99910.66;20780563;28;20053;-71
2022/08/28 04:50:28;;;;;;;1.85;1.75;;;;;;;26.53;49.65;99911.47;20785809;28;20107;-71
2022/08/28 05:00:28;;;;;;;1.95;1.65;;;;;;;26.53;49.25;99928.22;20774986;28;20037;-70
2022/08/28 05:10:29;;;;;;;2.15;1.95;;;;;;;26.53;49.69;99938.84;20773742;28;20104;-70
2022/08/28 05:20:33;;;;;;;;;;;;;;;26.48;49.28;99935.06;20763589;28;20038;-70
2022/08/28 05:30:34;;;;;;;2.13;1.92;;;;;;;26.52;49.56;99941.69;20783406;28;20376;-70
2022/08/28 05:40:39;;;;;;;;;;;;;;;26.48;49.65;99954.44;20773894;28;20397;-71
2022/08/28 05:50:39;;;;;;;2.28;2.08;;;;;;;26.52;49.89;99953.16;20777778;28;19928;-70
2022/08/28 06:00:39;;;;;;;3.28;2.08;;;;;;;26.53;49.74;99944.16;20783245;28;20429;-71
2022/08/28 06:10:43;;;;;;;1.83;1.73;;;;;;;26.53;49.90;99940.69;20784420;28;20045;-70
2022/08/28 06:20:46;;;;;;;2.58;2.00;;;;;;;26.53;49.83;99925.56;20781786;28;20049;-70
2022/08/28 06:30:48;;;;;;;2.17;2.00;;;;;;;26.55;49.41;99933.41;20769660;28;20041;-70
2022/08/28 06:40:53;;;;;;;2.28;1.70;;;;;;;26.56;49.71;99928.91;20777395;28;20072;-71
2022/08/28 06:50:55;;;;;;;1.80;1.70;;;;;;;26.57;49.51;99930.56;20779350;28;20530;-70
2022/08/28 07:01:03;;;;;;;2.65;2.03;;;;;;;26.57;49.52;99936.69;20772216;28;20447;-71
2022/08/28 07:11:12;;;;;;;2.03;1.90;;;;;;;26.59;49.37;99947.19;20783337;28;20077;-70
2022/08/28 07:21:13;;;;;;;2.00;1.80;;;;;;;26.60;49.43;99954.97;20769810;28;20044;-70
2022/08/28 07:31:18;;;;;;;1.77;1.67;;;;;;;26.62;49.30;99962.75;20771133;28;20045;-70
2022/08/28 07:41:22;;;;;;;2.10;1.88;;;;;;;26.63;49.29;99969.72;20742691;28;20045;-72
2022/08/28 07:51:22;;;;;;;2.30;2.10;;;;;;;26.64;49.79;99966.09;20770332;28;20053;-71
2022/08/28 08:01:24;;;;;;;2.33;2.13;;;;;;;26.64;49.50;99964.25;20762960;28;20046;-71
2022/08/28 08:11:25;;;;;;;2.33;2.13;;;;;;;26.65;49.71;99971.22;20791354;28;20052;-70
2022/08/28 08:21:26;;;;;;;2.30;2.10;;;;;;;26.67;49.56;99974.56;20782987;28;20497;-71
2022/08/28 08:31:31;;;;;;;2.17;2.08;;;;;;;26.68;49.27;99986.00;20801203;28;20049;-69
2022/08/28 08:41:38;;;;;;;2.40;2.20;;;;;;;26.68;49.33;99984.19;20783512;28;20066;-70
2022/08/28 08:51:46;;;;;;;9.00;2.80;;;;;;;26.72;48.64;99986.50;20706200;28;20050;-71
2022/08/28 09:02:00;;;;;;;5.07;3.30;;;;;;;26.79;50.64;99999.00;20662890;28;20044;-73
2022/08/28 09:12:10;;;;;;;5.53;3.38;;;;;;;26.80;48.18;99984.69;20668895;28;20170;-73
2022/08/28 09:22:10;;;;;;;6.32;3.50;;;;;;;26.86;48.20;99991.19;20682598;28;20045;-75
2022/08/28 09:32:29;;;;;;;7.05;3.67;;;;;;;26.87;47.41;99997.31;20732559;28;20409;-74
2022/08/28 09:52:49;;;;;;;5.28;3.45;;;;;;;26.99;46.55;100001.31;20710395;28;20176;-74
2022/08/28 10:03:08;;;;;;;4.40;3.20;;;;;;;26.98;45.24;99989.84;20716386;28;20143;-74
2022/08/28 10:13:11;;;;;;;5.05;3.67;;;;;;;27.06;44.34;99988.19;20703359;28;20401;-73
2022/08/28 10:23:29;;;;;;;6.32;3.15;;;;;;;27.09;43.52;99982.56;20701200;28;20042;-74
2022/08/28 10:34:05;;;;;;;6.28;3.05;;;;;;;27.13;43.29;99971.38;20677740;28;20042;-73
2022/08/28 10:44:09;;;;;;;4.88;3.75;;;;;;;27.33;42.90;99973.69;20718204;28;20096;-71
2022/08/28 10:54:52;;;;;;;6.32;3.60;;;;;;;27.34;43.60;99964.72;20696075;28;20092;-72
2022/08/28 11:04:56;;;;;;;9.10;4.95;;;;;;;27.60;45.47;99948.56;20699864;28;20132;-71
2022/08/28 11:14:56;;;;;;;6.40;3.72;;;;;;;27.73;42.34;99950.63;20698093;28;20944;-71
2022/08/28 11:25:30;;;;;;;5.43;3.45;;;;;;;27.85;41.07;99961.72;20684020;28;20033;-71
2022/08/28 11:35:39;;;;;;;8.80;3.67;;;;;;;27.86;42.81;99947.44;20633257;28;20065;-71
2022/08/28 11:45:42;;;;;;;6.50;3.72;;;;;;;27.95;42.70;99943.75;20697420;28;20053;-72
2022/08/28 11:55:55;;;;;;;4.93;3.10;;;;;;;27.93;43.13;99929.78;20706452;28;20046;-72
2022/08/28 12:06:00;;;;;;;7.47;3.20;;;;;;;28.04;42.31;99917.06;20679569;28;20079;-71
2022/08/28 12:16:05;;;;;;;8.77;3.13;;;;;;;28.17;40.72;99909.34;20695239;28;20038;-72
2022/08/28 12:26:11;;;;;;;3.78;2.95;;;;;;;28.21;40.87;99912.50;20693427;28;20042;-72
2022/08/28 12:36:15;;;;;;;3.20;2.85;;;;;;;28.29;39.73;99907.13;20688544;28;20049;-71
2022/08/28 12:46:25;;;;;;;5.82;3.13;;;;;;;28.42;40.97;99911.84;20697375;28;20065;-73
2022/08/28 12:56:32;;;;;;;5.45;3.00;;;;;;;28.38;42.55;99907.88;20691398;28;20046;-72
2022/08/28 13:06:36;;;;;;;5.03;3.05;;;;;;;28.48;43.08;99910.28;20681001;28;20046;-69
2022/08/28 13:16:43;;;;;;;8.50;2.92;;;;;;;28.54;42.76;99904.25;20698333;28;20052;-71
2022/08/28 13:26:43;;;;;;;5.88;3.00;;;;;;;28.59;43.33;99902.72;20683531;28;20052;-73
2022/08/28 13:36:47;;;;;;;6.50;3.30;;;;;;;28.63;43.20;99892.53;20700347;28;20053;-71
2022/08/28 13:46:47;;;;;;;4.13;3.00;;;;;;;28.66;43.18;99880.69;20679224;28;20049;-75
2022/08/28 13:56:48;;;;;;;13.10;3.17;;;;;;;28.74;44.94;99877.97;20663029;28;20543;-70
2022/08/28 14:06:49;;;;;;;4.80;2.90;;;;;;;28.78;43.31;99868.59;20692606;28;20172;-69
2022/08/28 14:16:53;;;;;;;6.50;3.00;;;;;;;28.80;42.88;99857.78;20708796;28;20353;-69
2022/08/28 14:26:54;;;;;;;7.15;3.30;;;;;;;28.84;43.03;99851.06;20709059;28;20056;-70
2022/08/28 14:36:54;;;;;;;6.95;3.47;;;;;;;28.81;43.30;99865.59;20714996;28;20073;-71
2022/08/28 14:46:55;;;;;;;12.05;6.55;;;;;;;28.84;43.54;99873.19;20694683;28;20042;-72
2022/08/28 14:56:56;;;;;;;5.50;3.55;;;;;;;28.86;42.93;99873.84;20706619;28;20386;-70
2022/08/28 15:06:58;;;;;;;6.38;3.95;;;;;;;28.87;43.11;99875.50;20692489;28;20572;-70
2022/08/28 15:16:59;;;;;;;5.35;3.83;;;;;;;28.89;43.24;99875.31;20697786;28;20112;-70
2022/08/28 15:27:01;;;;;;;6.60;4.25;;;;;;;28.88;43.19;99874.50;20699415;28;20048;-71
2022/08/28 15:37:01;;;;;;;6.20;3.90;;;;;;;28.88;42.86;99886.97;20696975;28;20584;-71
2022/08/28 15:47:03;;;;;;;8.15;3.75;;;;;;;28.88;42.75;99890.50;20700751;28;20046;-70
2022/08/28 15:57:04;;;;;;;5.75;3.50;;;;;;;28.84;43.01;99894.50;20683233;28;20037;-70
2022/08/28 16:07:04;;;;;;;5.88;3.42;;;;;;;28.81;42.84;99884.25;20675192;28;20045;-70
2022/08/28 16:17:05;;;;;;;7.72;3.95;;;;;;;28.75;43.12;99884.97;20692574;28;20038;-70
2022/08/28 16:27:06;;;;;;;7.40;3.15;;;;;;;28.66;42.49;99878.84;20702486;28;20080;-71
2022/08/28 16:37:06;;;;;;;6.75;3.00;;;;;;;28.60;42.23;99875.06;20712036;28;20626;-70
2022/08/28 16:47:07;;;;;;;5.10;3.22;;;;;;;28.44;42.88;99900.00;20709933;28;20428;-70
2022/08/28 16:57:07;;;;;;;4.78;3.10;;;;;;;28.31;43.09;99913.09;20696478;28;20409;-70
2022/08/28 17:07:07;;;;;;;6.70;2.95;;;;;;;28.32;43.42;99932.56;20651456;28;20438;-71
2022/08/28 17:17:08;;;;;;;5.45;2.58;;;;;;;28.12;43.50;99938.34;20672697;28;20061;-72
2022/08/28 17:27:08;;;;;;;5.22;2.70;;;;;;;28.03;43.56;99950.84;20674592;28;20057;-71
2022/08/28 17:37:10;;;;;;;4.93;2.63;;;;;;;28.02;43.52;99959.81;20674689;28;20045;-71
2022/08/28 17:47:10;;;;;;;4.88;3.22;;;;;;;27.91;43.71;99971.69;20711985;28;20041;-72
2022/08/28 17:57:12;;;;;;;5.07;2.60;;;;;;;27.74;44.04;99994.88;20674278;28;20041;-71
2022/08/28 18:07:13;;;;;;;74.15;51.15;;;;;;;27.72;44.30;99990.72;20651985;28;20095;-72
2022/08/28 18:17:14;;;;;;;7.03;5.20;;;;;;;27.68;44.22;99995.56;20679469;28;20042;-73
2022/08/28 18:27:15;;;;;;;8.80;3.58;;;;;;;27.63;44.36;99996.06;20700614;28;20042;-73
2022/08/28 18:37:16;;;;;;;3.35;2.70;;;;;;;27.46;44.50;100021.88;20687661;28;20049;-72
2022/08/28 18:47:17;;;;;;;6.30;3.28;;;;;;;27.41;45.22;100020.75;20714041;28;20041;-72
2022/08/28 18:57:17;;;;;;;8.57;3.60;;;;;;;27.29;45.44;100033.50;20709847;28;20046;-73
2022/08/28 19:07:18;;;;;;;7.43;4.03;;;;;;;27.24;45.84;100033.19;20709199;28;20044;-74
2022/08/28 19:17:21;;;;;;;7.32;2.97;;;;;;;27.22;46.03;100029.84;20715087;28;20912;-73
2022/08/28 19:27:21;;;;;;;6.50;5.15;;;;;;;27.07;46.31;100051.78;20701422;28;20042;-73
2022/08/28 19:37:22;;;;;;;12.38;8.65;;;;;;;26.96;46.19;100058.25;20697859;28;20077;-73
2022/08/28 19:47:23;;;;;;;11.00;6.57;;;;;;;26.83;46.52;100074.69;20683969;28;20564;-73
2022/08/28 19:57:23;;;;;;;5.90;4.25;;;;;;;26.73;46.74;100081.94;20688625;28;20049;-72
2022/08/28 20:07:24;;;;;;;4.10;2.20;;;;;;;26.57;47.04;100090.69;20724163;28;20057;-73
2022/08/28 20:17:25;;;;;;;;;;;;;;;26.55;46.66;100094.50;20718546;28;20034;-73
2022/08/28 20:27:25;;;;;;;5.57;3.20;;;;;;;26.33;47.19;100096.75;20715019;28;19921;-73
2022/08/28 20:37:25;;;;;;;6.90;2.90;;;;;;;26.32;47.74;100090.63;20694207;28;20045;-73
2022/08/28 20:47:27;;;;;;;3.88;2.95;;;;;;;26.16;48.72;100104.66;20711080;28;20049;-73
2022/08/28 20:57:27;;;;;;;5.00;3.33;;;;;;;25.98;50.20;100106.53;20740330;28;20064;-74
2022/08/28 21:07:28;;;;;;;5.82;3.35;;;;;;;25.80;50.97;100101.28;20732646;28;20045;-73
2022/08/28 21:17:29;;;;;;;5.00;3.30;;;;;;;25.61;51.82;100113.78;20706952;28;20132;-74
2022/08/28 21:27:30;;;;;;;4.10;3.05;;;;;;;25.52;52.43;100117.34;20720101;28;20042;-74
2022/08/28 21:37:30;;;;;;;4.10;3.40;;;;;;;25.48;53.13;100132.72;20708836;28;20505;-73
2022/08/28 21:47:32;;;;;;;5.68;3.67;;;;;;;25.50;53.10;100130.75;20701616;28;20069;-75
2022/08/28 21:57:33;;;;;;;4.82;3.63;;;;;;;25.30;53.98;100131.88;20675003;28;20041;-74
2022/08/28 22:07:33;;;;;;;4.33;3.90;;;;;;;25.25;54.49;100140.28;20655569;28;20125;-74
2022/08/28 22:17:34;;;;;;;4.13;3.70;;;;;;;25.09;55.13;100135.66;20619532;28;21281;-73
2022/08/28 22:27:35;;;;;;;7.68;4.10;;;;;;;25.07;55.30;100133.16;20651699;28;20147;-73
2022/08/28 22:37:36;;;;;;;7.95;4.20;;;;;;;24.89;56.01;100135.78;20662238;28;20778;-71
2022/08/28 22:47:37;;;;;;;4.63;3.73;;;;;;;24.78;56.50;100134.19;20659570;28;20057;-73
2022/08/28 22:57:37;;;;;;;5.47;4.10;;;;;;;24.83;56.04;100135.53;20663235;28;20080;-72
2022/08/28 23:07:38;;;;;;;6.35;4.82;;;;;;;24.53;57.13;100135.69;20657875;28;20527;-73
2022/08/28 23:17:38;;;;;;;5.40;4.88;;;;;;;24.57;56.68;100141.50;20657732;28;20065;-73
2022/08/28 23:27:38;;;;;;;8.32;4.47;;;;;;;24.45;56.98;100152.31;20665770;28;20412;-73
2022/08/28 23:37:40;;;;;;;5.30;4.75;;;;;;;24.38;57.14;100148.56;20661097;28;20053;-74
2022/08/28 23:47:42;;;;;;;6.37;5.00;;;;;;;24.27;57.47;100154.06;20640326;28;20105;-74
2022/08/28 23:57:42;;;;;;;6.63;5.05;;;;;;;24.12;57.85;100151.88;20658319;28;20038;-74
